createdAt,value
2022-12-04T00:00:17.026Z,91
2022-12-04T00:05:20.254Z,92
2022-12-04T00:10:20.335Z,91
2022-12-04T00:15:25.700Z,88
2022-12-04T00:20:20.204Z,81
2022-12-04T00:25:20.267Z,76
2022-12-04T00:30:20.180Z,75
2022-12-04T00:35:20.289Z,76
2022-12-04T00:40:20.225Z,76
2022-12-04T00:45:20.252Z,72
2022-12-04T00:50:17.151Z,74
2022-12-04T00:55:17.256Z,69
2022-12-04T01:00:20.358Z,69
2022-12-04T01:05:20.345Z,68
2022-12-04T01:10:20.356Z,65
2022-12-04T01:15:20.369Z,66
2022-12-04T01:20:20.276Z,66
2022-12-04T01:25:20.519Z,64
2022-12-04T01:30:20.233Z,63
2022-12-04T01:35:20.327Z,64
2022-12-04T01:40:20.462Z,64
2022-12-04T01:45:17.239Z,62
2022-12-04T01:50:17.173Z,60
2022-12-04T01:55:20.588Z,59
2022-12-04T02:00:20.500Z,60
2022-12-04T02:05:20.505Z,62
2022-12-04T02:10:20.452Z,62
2022-12-04T02:15:20.444Z,63
2022-12-04T02:20:20.330Z,64
2022-12-04T02:25:20.474Z,64
2022-12-04T02:30:20.385Z,64
2022-12-04T02:35:20.572Z,65
2022-12-04T02:40:17.309Z,65
2022-12-04T02:45:20.492Z,66
2022-12-04T02:50:20.617Z,67
2022-12-04T02:55:20.477Z,66
2022-12-04T03:00:20.461Z,67
2022-12-04T03:05:20.461Z,68
2022-12-04T03:10:20.545Z,67
2022-12-04T03:15:20.529Z,68
2022-12-04T03:20:20.610Z,68
2022-12-04T03:25:20.583Z,67
2022-12-04T03:30:17.447Z,68
2022-12-04T03:35:17.416Z,67
2022-12-04T03:40:20.625Z,66
2022-12-04T03:45:20.634Z,67
2022-12-04T03:50:18.620Z,67
2022-12-04T03:55:18.613Z,67
2022-12-04T04:00:18.471Z,65
2022-12-04T04:05:18.726Z,66
2022-12-04T04:10:15.477Z,66
2022-12-04T04:15:15.442Z,67
2022-12-04T04:20:18.605Z,66
2022-12-04T04:25:18.686Z,65
2022-12-04T04:30:18.585Z,65
2022-12-04T04:35:18.677Z,65
2022-12-04T04:40:18.633Z,66
2022-12-04T04:45:18.705Z,65
2022-12-04T04:50:18.663Z,66
2022-12-04T04:55:18.826Z,65
2022-12-04T05:00:19.914Z,64
2022-12-04T05:05:20.104Z,65
2022-12-04T05:10:19.980Z,64
2022-12-04T05:15:19.970Z,64
2022-12-04T05:20:19.970Z,63
2022-12-04T05:25:20.107Z,63
2022-12-04T05:30:19.991Z,63
2022-12-04T05:35:16.927Z,62
2022-12-04T05:40:20.144Z,61
2022-12-04T05:45:20.090Z,61
2022-12-04T05:50:20.078Z,62
2022-12-04T05:55:19.985Z,61
2022-12-04T06:00:20.074Z,59
2022-12-04T06:05:20.107Z,57
2022-12-04T06:10:20.052Z,59
2022-12-04T06:15:20.238Z,59
2022-12-04T06:20:20.043Z,59
2022-12-04T06:25:16.986Z,62
2022-12-04T06:30:17.061Z,59
2022-12-04T06:35:20.171Z,59
2022-12-04T06:40:20.098Z,61
2022-12-04T06:45:20.149Z,61
2022-12-04T06:50:20.279Z,62
2022-12-04T06:55:20.147Z,61
2022-12-04T07:00:20.259Z,61
2022-12-04T07:05:20.276Z,61
2022-12-04T07:10:20.180Z,61
2022-12-04T07:15:20.166Z,62
2022-12-04T07:20:17.247Z,63
2022-12-04T07:25:17.224Z,63
2022-12-04T07:30:20.115Z,62
2022-12-04T07:35:20.247Z,61
2022-12-04T07:40:20.220Z,59
2022-12-04T07:45:20.294Z,60
2022-12-04T07:50:20.280Z,60
2022-12-04T07:55:23.248Z,59
2022-12-04T08:00:20.252Z,61
2022-12-04T08:05:20.303Z,57
2022-12-04T08:10:20.239Z,56
2022-12-04T08:15:17.093Z,57
2022-12-04T08:20:17.332Z,57
2022-12-04T08:25:20.217Z,60
2022-12-04T08:30:20.175Z,58
2022-12-04T08:35:20.391Z,58
2022-12-04T08:40:20.364Z,59
2022-12-04T08:45:20.359Z,56
2022-12-04T08:50:20.397Z,57
2022-12-04T08:55:20.397Z,59
2022-12-04T09:00:20.407Z,58
2022-12-04T09:05:17.297Z,59
2022-12-04T09:10:17.154Z,60
2022-12-04T09:15:20.293Z,61
2022-12-04T09:20:20.382Z,60
2022-12-04T09:25:20.604Z,60
2022-12-04T09:30:20.295Z,61
2022-12-04T09:35:20.446Z,61
2022-12-04T09:40:20.495Z,62
2022-12-04T09:45:20.382Z,62
2022-12-04T09:50:20.763Z,62
2022-12-04T09:55:20.524Z,61
2022-12-04T10:00:17.372Z,62
2022-12-04T10:05:17.434Z,63
2022-12-04T10:10:20.587Z,62
2022-12-04T10:15:20.522Z,63
2022-12-04T10:20:20.496Z,60
2022-12-04T10:25:20.640Z,58
2022-12-04T10:30:20.475Z,60
2022-12-04T10:35:18.561Z,61
2022-12-04T10:40:15.521Z,59
2022-12-04T10:45:15.697Z,61
2022-12-04T10:50:18.644Z,60
2022-12-04T10:55:18.641Z,62
2022-12-04T11:00:18.652Z,61
2022-12-04T11:05:18.681Z,62
2022-12-04T11:10:18.879Z,60
2022-12-04T11:15:18.606Z,60
2022-12-04T11:20:18.788Z,61
2022-12-04T11:25:18.727Z,61
2022-12-04T11:30:15.575Z,61
2022-12-04T11:35:15.568Z,63
2022-12-04T11:40:18.722Z,62
2022-12-04T11:45:18.809Z,63
2022-12-04T11:50:18.725Z,63
2022-12-04T11:55:22.355Z,64
2022-12-04T12:00:18.721Z,63
2022-12-04T12:05:18.724Z,64
2022-12-04T12:10:19.284Z,61
2022-12-04T12:15:18.790Z,60
2022-12-04T12:20:18.703Z,60
2022-12-04T12:25:15.662Z,61
2022-12-04T12:30:15.702Z,59
2022-12-04T12:35:18.872Z,60
2022-12-04T12:40:18.801Z,62
2022-12-04T12:45:18.921Z,60
2022-12-04T12:50:18.808Z,61
2022-12-04T12:55:18.948Z,59
2022-12-04T13:00:18.815Z,59
2022-12-04T13:05:18.902Z,58
2022-12-04T13:10:18.848Z,60
2022-12-04T13:15:18.866Z,58
2022-12-04T13:20:15.941Z,58
2022-12-04T13:25:18.945Z,58
2022-12-04T13:30:18.834Z,59
2022-12-04T13:35:18.854Z,59
2022-12-04T13:40:18.925Z,61
2022-12-04T13:45:18.903Z,57
2022-12-04T13:50:19.173Z,60
2022-12-04T13:55:18.977Z,58
2022-12-04T14:00:18.986Z,58
2022-12-04T14:05:19.067Z,59
2022-12-04T14:10:15.985Z,58
2022-12-04T14:15:15.899Z,56
2022-12-04T14:20:18.919Z,58
2022-12-04T14:25:19.164Z,56
2022-12-04T14:30:18.926Z,58
2022-12-04T14:35:19.085Z,59
2022-12-04T14:40:19.108Z,54
2022-12-04T14:45:19.023Z,53
2022-12-04T14:50:18.969Z,53
2022-12-04T14:55:19.149Z,52
2022-12-04T15:00:19.084Z,49
2022-12-04T15:05:16.005Z,52
2022-12-04T15:10:16.026Z,51
2022-12-04T15:15:19.153Z,51
2022-12-04T15:20:19.176Z,52
2022-12-04T15:25:19.119Z,51
2022-12-04T15:30:19.139Z,52
2022-12-04T15:35:19.220Z,52
2022-12-04T15:40:19.195Z,53
2022-12-04T15:45:19.212Z,50
2022-12-04T15:50:19.314Z,51
2022-12-04T15:55:19.273Z,50
2022-12-04T16:00:16.136Z,50
2022-12-04T16:05:19.274Z,51
2022-12-04T16:10:19.314Z,49
2022-12-04T16:15:19.221Z,49
2022-12-04T16:20:19.387Z,52
2022-12-04T16:25:19.181Z,49
2022-12-04T16:30:19.190Z,50
2022-12-04T16:35:19.298Z,49
2022-12-04T16:40:19.284Z,51
2022-12-04T16:45:19.359Z,49
2022-12-04T16:50:16.280Z,50
2022-12-04T16:55:16.207Z,51
2022-12-04T17:00:19.345Z,48
2022-12-04T17:05:19.375Z,47
2022-12-04T17:10:23.791Z,49
2022-12-04T17:15:19.373Z,50
2022-12-04T17:20:19.588Z,49
2022-12-04T17:25:19.437Z,51
2022-12-04T17:30:19.277Z,47
2022-12-04T17:35:19.411Z,49
2022-12-04T17:40:19.447Z,48
2022-12-04T17:45:16.365Z,50
2022-12-04T17:50:16.527Z,49
2022-12-04T17:55:19.564Z,50
2022-12-04T18:00:19.387Z,49
2022-12-04T18:05:19.452Z,49
2022-12-04T18:10:19.431Z,50
2022-12-04T18:15:19.555Z,49
2022-12-04T18:20:19.436Z,49
2022-12-04T18:25:19.488Z,49
2022-12-04T18:30:19.468Z,49
2022-12-04T18:35:19.562Z,50
2022-12-04T18:40:16.411Z,50
2022-12-04T18:45:19.691Z,50
2022-12-04T18:50:19.547Z,50
2022-12-04T18:55:19.505Z,52
2022-12-04T19:00:19.712Z,49
2022-12-04T19:05:19.677Z,49
2022-12-04T19:10:19.543Z,51
2022-12-04T19:15:19.590Z,51
2022-12-04T19:20:19.487Z,50
2022-12-04T19:25:19.790Z,50
2022-12-04T19:30:16.539Z,50
2022-12-04T19:35:16.499Z,51
2022-12-04T19:40:19.621Z,50
2022-12-04T19:45:19.745Z,50
2022-12-04T19:50:19.616Z,50
2022-12-04T19:55:19.627Z,50
2022-12-04T20:00:19.723Z,49
2022-12-04T20:05:19.823Z,52
2022-12-04T20:10:19.646Z,50
2022-12-04T20:15:19.651Z,54
2022-12-04T20:20:19.661Z,52
2022-12-04T20:25:16.621Z,51
2022-12-04T20:30:16.607Z,52
2022-12-04T20:35:19.859Z,53
2022-12-04T20:40:19.808Z,53
2022-12-04T20:45:19.708Z,53
2022-12-04T20:50:19.781Z,54
2022-12-04T20:55:19.819Z,52
2022-12-04T21:00:19.735Z,52
2022-12-04T21:05:19.844Z,52
2022-12-04T21:10:19.827Z,53
2022-12-04T21:15:19.759Z,55
2022-12-04T21:20:16.765Z,55
2022-12-04T21:25:16.827Z,54
2022-12-04T21:30:19.768Z,55
2022-12-04T21:35:19.773Z,54
2022-12-04T21:40:19.852Z,56
2022-12-04T21:45:19.994Z,59
2022-12-04T21:50:19.926Z,58
2022-12-04T21:55:19.951Z,58
2022-12-04T22:00:19.925Z,60
2022-12-04T22:05:19.889Z,60
2022-12-04T22:10:16.889Z,60
2022-12-04T22:15:16.784Z,58
2022-12-04T22:20:19.886Z,59
2022-12-04T22:25:20.033Z,63
2022-12-04T22:30:19.849Z,64
2022-12-04T22:35:19.938Z,63
2022-12-04T22:40:19.970Z,65
2022-12-04T22:45:19.925Z,63
2022-12-04T22:50:20.037Z,63
2022-12-04T22:55:19.937Z,62
2022-12-04T23:00:20.057Z,61
2022-12-04T23:05:16.949Z,61
2022-12-04T23:10:16.929Z,64
2022-12-04T23:15:20.123Z,63
2022-12-04T23:20:20.084Z,62
2022-12-04T23:25:20.126Z,63
2022-12-04T23:30:26.109Z,64
2022-12-04T23:35:20.092Z,64
2022-12-04T23:40:20.051Z,63
2022-12-04T23:45:20.098Z,63
2022-12-04T23:50:20.118Z,64
2022-12-04T23:55:20.203Z,65
